sensor_id;sensor_type;location;lat;lon;timestamp;P1;durP1;ratioP1;P2;durP2;ratioP2
50789;SDS011;37287;47.554;7.844;2023-04-16T00:01:23;1.65;;;1.55;;
50789;SDS011;37287;47.554;7.844;2023-04-16T00:03:50;2.58;;;2.00;;
50789;SDS011;37287;47.554;7.844;2023-04-16T00:06:17;1.80;;;1.70;;
50789;SDS011;37287;47.554;7.844;2023-04-16T00:08:43;4.82;;;1.80;;
50789;SDS011;37287;47.554;7.844;2023-04-16T00:11:12;2.88;;;1.80;;
50789;SDS011;37287;47.554;7.844;2023-04-16T00:13:39;2.30;;;2.10;;
50789;SDS011;37287;47.554;7.844;2023-04-16T00:16:05;1.88;;;1.77;;
50789;SDS011;37287;47.554;7.844;2023-04-16T00:18:34;2.75;;;2.00;;
50789;SDS011;37287;47.554;7.844;2023-04-16T00:21:01;2.50;;;2.30;;
50789;SDS011;37287;47.554;7.844;2023-04-16T00:23:27;2.40;;;2.20;;
50789;SDS011;37287;47.554;7.844;2023-04-16T00:25:59;2.10;;;2.00;;
50789;SDS011;37287;47.554;7.844;2023-04-16T00:28:26;2.75;;;2.50;;
50789;SDS011;37287;47.554;7.844;2023-04-16T00:30:53;3.08;;;2.50;;
50789;SDS011;37287;47.554;7.844;2023-04-16T00:33:20;2.75;;;2.50;;
50789;SDS011;37287;47.554;7.844;2023-04-16T00:35:47;2.40;;;2.20;;
50789;SDS011;37287;47.554;7.844;2023-04-16T00:38:15;3.92;;;2.80;;
50789;SDS011;37287;47.554;7.844;2023-04-16T00:40:42;3.20;;;2.80;;
50789;SDS011;37287;47.554;7.844;2023-04-16T00:43:09;3.67;;;3.30;;
50789;SDS011;37287;47.554;7.844;2023-04-16T00:45:35;5.38;;;2.97;;
50789;SDS011;37287;47.554;7.844;2023-04-16T00:48:04;3.35;;;2.90;;
50789;SDS011;37287;47.554;7.844;2023-04-16T00:50:31;4.43;;;3.00;;
50789;SDS011;37287;47.554;7.844;2023-04-16T00:52:59;3.10;;;2.90;;
50789;SDS011;37287;47.554;7.844;2023-04-16T00:55:28;3.63;;;3.15;;
50789;SDS011;37287;47.554;7.844;2023-04-16T00:57:55;3.00;;;2.80;;
50789;SDS011;37287;47.554;7.844;2023-04-16T01:00:21;2.80;;;2.60;;
50789;SDS011;37287;47.554;7.844;2023-04-16T01:03:01;3.22;;;2.72;;
50789;SDS011;37287;47.554;7.844;2023-04-16T01:05:28;3.20;;;2.55;;
50789;SDS011;37287;47.554;7.844;2023-04-16T01:07:57;3.20;;;2.90;;
50789;SDS011;37287;47.554;7.844;2023-04-16T01:10:27;2.47;;;2.28;;
50789;SDS011;37287;47.554;7.844;2023-04-16T01:12:54;2.50;;;2.30;;
50789;SDS011;37287;47.554;7.844;2023-04-16T01:15:20;2.30;;;2.20;;
50789;SDS011;37287;47.554;7.844;2023-04-16T01:17:47;2.58;;;2.33;;
50789;SDS011;37287;47.554;7.844;2023-04-16T01:20:14;3.13;;;2.45;;
50789;SDS011;37287;47.554;7.844;2023-04-16T01:22:40;2.83;;;2.42;;
50789;SDS011;37287;47.554;7.844;2023-04-16T01:25:15;3.38;;;2.47;;
50789;SDS011;37287;47.554;7.844;2023-04-16T01:27:41;2.13;;;1.92;;
50789;SDS011;37287;47.554;7.844;2023-04-16T01:30:08;2.95;;;2.20;;
50789;SDS011;37287;47.554;7.844;2023-04-16T01:32:35;2.55;;;2.35;;
50789;SDS011;37287;47.554;7.844;2023-04-16T01:35:01;3.42;;;2.72;;
50789;SDS011;37287;47.554;7.844;2023-04-16T01:37:32;2.85;;;2.60;;
50789;SDS011;37287;47.554;7.844;2023-04-16T01:39:59;3.42;;;3.13;;
50789;SDS011;37287;47.554;7.844;2023-04-16T01:42:25;3.35;;;3.05;;
50789;SDS011;37287;47.554;7.844;2023-04-16T01:44:53;3.17;;;2.88;;
50789;SDS011;37287;47.554;7.844;2023-04-16T01:47:24;2.70;;;2.50;;
50789;SDS011;37287;47.554;7.844;2023-04-16T01:49:51;3.13;;;2.83;;
50789;SDS011;37287;47.554;7.844;2023-04-16T01:52:17;2.50;;;2.30;;
50789;SDS011;37287;47.554;7.844;2023-04-16T01:54:46;3.38;;;2.60;;
50789;SDS011;37287;47.554;7.844;2023-04-16T01:57:15;3.58;;;3.28;;
50789;SDS011;37287;47.554;7.844;2023-04-16T01:59:41;4.07;;;2.90;;
50789;SDS011;37287;47.554;7.844;2023-04-16T02:02:10;3.30;;;2.90;;
50789;SDS011;37287;47.554;7.844;2023-04-16T02:04:42;3.08;;;2.88;;
50789;SDS011;37287;47.554;7.844;2023-04-16T02:07:13;4.80;;;3.25;;
50789;SDS011;37287;47.554;7.844;2023-04-16T02:09:41;3.40;;;3.10;;
50789;SDS011;37287;47.554;7.844;2023-04-16T02:12:08;3.90;;;3.60;;
50789;SDS011;37287;47.554;7.844;2023-04-16T02:14:38;3.97;;;3.65;;
50789;SDS011;37287;47.554;7.844;2023-04-16T02:17:05;4.05;;;3.65;;
50789;SDS011;37287;47.554;7.844;2023-04-16T02:19:34;4.60;;;4.20;;
50789;SDS011;37287;47.554;7.844;2023-04-16T02:22:00;4.22;;;3.75;;
50789;SDS011;37287;47.554;7.844;2023-04-16T02:24:27;4.13;;;3.72;;
50789;SDS011;37287;47.554;7.844;2023-04-16T02:26:53;4.05;;;3.58;;
50789;SDS011;37287;47.554;7.844;2023-04-16T02:29:22;3.88;;;3.47;;
50789;SDS011;37287;47.554;7.844;2023-04-16T02:31:48;4.28;;;3.65;;
50789;SDS011;37287;47.554;7.844;2023-04-16T02:34:15;3.63;;;3.33;;
50789;SDS011;37287;47.554;7.844;2023-04-16T02:36:42;4.80;;;3.50;;
50789;SDS011;37287;47.554;7.844;2023-04-16T02:39:09;4.40;;;3.80;;
50789;SDS011;37287;47.554;7.844;2023-04-16T02:41:36;4.25;;;3.85;;
50789;SDS011;37287;47.554;7.844;2023-04-16T02:44:05;4.15;;;3.75;;
50789;SDS011;37287;47.554;7.844;2023-04-16T02:46:32;5.03;;;4.40;;
50789;SDS011;37287;47.554;7.844;2023-04-16T02:48:58;4.47;;;4.10;;
50789;SDS011;37287;47.554;7.844;2023-04-16T02:51:25;4.82;;;4.25;;
50789;SDS011;37287;47.554;7.844;2023-04-16T02:53:52;4.60;;;4.20;;
50789;SDS011;37287;47.554;7.844;2023-04-16T02:56:19;4.78;;;4.38;;
50789;SDS011;37287;47.554;7.844;2023-04-16T02:58:50;5.18;;;4.50;;
50789;SDS011;37287;47.554;7.844;2023-04-16T03:01:17;5.22;;;4.72;;
50789;SDS011;37287;47.554;7.844;2023-04-16T03:03:44;5.28;;;4.78;;
50789;SDS011;37287;47.554;7.844;2023-04-16T03:06:10;4.72;;;4.32;;
50789;SDS011;37287;47.554;7.844;2023-04-16T03:08:37;4.90;;;4.50;;
50789;SDS011;37287;47.554;7.844;2023-04-16T03:11:04;5.00;;;4.50;;
50789;SDS011;37287;47.554;7.844;2023-04-16T03:13:31;5.45;;;4.95;;
50789;SDS011;37287;47.554;7.844;2023-04-16T03:15:58;5.22;;;4.70;;
50789;SDS011;37287;47.554;7.844;2023-04-16T03:18:27;5.40;;;4.20;;
50789;SDS011;37287;47.554;7.844;2023-04-16T03:20:53;5.07;;;4.20;;
50789;SDS011;37287;47.554;7.844;2023-04-16T03:23:20;4.90;;;4.22;;
50789;SDS011;37287;47.554;7.844;2023-04-16T03:25:47;4.97;;;4.47;;
50789;SDS011;37287;47.554;7.844;2023-04-16T03:28:13;7.18;;;4.65;;
50789;SDS011;37287;47.554;7.844;2023-04-16T03:30:42;5.90;;;4.60;;
50789;SDS011;37287;47.554;7.844;2023-04-16T03:33:08;7.68;;;5.53;;
50789;SDS011;37287;47.554;7.844;2023-04-16T03:35:36;6.32;;;5.75;;
50789;SDS011;37287;47.554;7.844;2023-04-16T03:38:03;5.97;;;5.38;;
50789;SDS011;37287;47.554;7.844;2023-04-16T03:40:32;6.28;;;5.68;;
50789;SDS011;37287;47.554;7.844;2023-04-16T03:42:58;5.82;;;5.22;;
50789;SDS011;37287;47.554;7.844;2023-04-16T03:45:25;5.40;;;4.90;;
50789;SDS011;37287;47.554;7.844;2023-04-16T03:47:51;6.53;;;5.93;;
50789;SDS011;37287;47.554;7.844;2023-04-16T03:50:26;7.20;;;6.25;;
50789;SDS011;37287;47.554;7.844;2023-04-16T03:52:52;6.28;;;5.68;;
50789;SDS011;37287;47.554;7.844;2023-04-16T03:55:19;6.93;;;6.22;;
50789;SDS011;37287;47.554;7.844;2023-04-16T03:57:47;7.30;;;6.30;;
50789;SDS011;37287;47.554;7.844;2023-04-16T04:00:14;6.95;;;6.25;;
50789;SDS011;37287;47.554;7.844;2023-04-16T04:02:40;7.20;;;6.50;;
50789;SDS011;37287;47.554;7.844;2023-04-16T04:05:08;7.20;;;6.45;;
50789;SDS011;37287;47.554;7.844;2023-04-16T04:07:34;6.72;;;5.88;;
50789;SDS011;37287;47.554;7.844;2023-04-16T04:10:01;7.10;;;6.40;;
50789;SDS011;37287;47.554;7.844;2023-04-16T04:12:32;9.38;;;6.97;;
50789;SDS011;37287;47.554;7.844;2023-04-16T04:14:58;7.20;;;6.50;;
50789;SDS011;37287;47.554;7.844;2023-04-16T04:17:25;8.85;;;7.03;;
50789;SDS011;37287;47.554;7.844;2023-04-16T04:19:52;8.10;;;7.20;;
50789;SDS011;37287;47.554;7.844;2023-04-16T04:22:25;8.52;;;6.80;;
50789;SDS011;37287;47.554;7.844;2023-04-16T04:24:51;8.70;;;7.75;;
50789;SDS011;37287;47.554;7.844;2023-04-16T04:27:20;11.10;;;7.15;;
50789;SDS011;37287;47.554;7.844;2023-04-16T04:29:47;6.75;;;6.05;;
50789;SDS011;37287;47.554;7.844;2023-04-16T04:32:13;6.95;;;6.25;;
50789;SDS011;37287;47.554;7.844;2023-04-16T04:34:46;8.95;;;6.40;;
50789;SDS011;37287;47.554;7.844;2023-04-16T04:37:13;8.43;;;7.50;;
50789;SDS011;37287;47.554;7.844;2023-04-16T04:39:39;7.95;;;7.15;;
50789;SDS011;37287;47.554;7.844;2023-04-16T04:42:08;7.57;;;6.03;;
50789;SDS011;37287;47.554;7.844;2023-04-16T04:44:37;8.27;;;7.13;;
50789;SDS011;37287;47.554;7.844;2023-04-16T04:47:03;7.65;;;6.85;;
50789;SDS011;37287;47.554;7.844;2023-04-16T04:49:31;8.25;;;7.40;;
50789;SDS011;37287;47.554;7.844;2023-04-16T04:51:58;7.53;;;6.82;;
50789;SDS011;37287;47.554;7.844;2023-04-16T04:54:25;9.00;;;7.32;;
50789;SDS011;37287;47.554;7.844;2023-04-16T04:56:51;8.40;;;7.50;;
50789;SDS011;37287;47.554;7.844;2023-04-16T04:59:19;11.70;;;7.70;;
50789;SDS011;37287;47.554;7.844;2023-04-16T05:01:46;8.70;;;7.28;;
50789;SDS011;37287;47.554;7.844;2023-04-16T05:04:13;7.82;;;6.57;;
50789;SDS011;37287;47.554;7.844;2023-04-16T05:06:39;8.20;;;7.38;;
50789;SDS011;37287;47.554;7.844;2023-04-16T05:09:06;8.48;;;7.32;;
50789;SDS011;37287;47.554;7.844;2023-04-16T05:11:39;8.85;;;7.95;;
50789;SDS011;37287;47.554;7.844;2023-04-16T05:14:06;9.60;;;8.25;;
50789;SDS011;37287;47.554;7.844;2023-04-16T05:16:35;14.75;;;9.40;;
50789;SDS011;37287;47.554;7.844;2023-04-16T05:19:05;10.00;;;8.07;;
50789;SDS011;37287;47.554;7.844;2023-04-16T05:21:32;10.38;;;8.48;;
50789;SDS011;37287;47.554;7.844;2023-04-16T05:23:59;10.40;;;8.30;;
50789;SDS011;37287;47.554;7.844;2023-04-16T05:26:34;10.43;;;8.45;;
50789;SDS011;37287;47.554;7.844;2023-04-16T05:29:00;10.20;;;8.10;;
50789;SDS011;37287;47.554;7.844;2023-04-16T05:31:27;8.18;;;7.38;;
50789;SDS011;37287;47.554;7.844;2023-04-16T05:33:54;8.63;;;7.60;;
50789;SDS011;37287;47.554;7.844;2023-04-16T05:36:20;8.90;;;8.00;;
50789;SDS011;37287;47.554;7.844;2023-04-16T05:38:47;8.38;;;7.55;;
50789;SDS011;37287;47.554;7.844;2023-04-16T05:41:16;8.02;;;7.22;;
50789;SDS011;37287;47.554;7.844;2023-04-16T05:43:42;8.93;;;6.90;;
50789;SDS011;37287;47.554;7.844;2023-04-16T05:46:09;7.55;;;6.85;;
50789;SDS011;37287;47.554;7.844;2023-04-16T05:48:44;8.35;;;7.55;;
50789;SDS011;37287;47.554;7.844;2023-04-16T05:51:11;11.38;;;9.07;;
50789;SDS011;37287;47.554;7.844;2023-04-16T05:53:37;8.68;;;7.53;;
50789;SDS011;37287;47.554;7.844;2023-04-16T05:56:04;8.77;;;7.90;;
50789;SDS011;37287;47.554;7.844;2023-04-16T05:58:31;8.10;;;7.30;;
50789;SDS011;37287;47.554;7.844;2023-04-16T06:00:59;9.77;;;8.00;;
50789;SDS011;37287;47.554;7.844;2023-04-16T06:03:26;8.25;;;7.22;;
50789;SDS011;37287;47.554;7.844;2023-04-16T06:05:53;9.15;;;7.57;;
50789;SDS011;37287;47.554;7.844;2023-04-16T06:08:20;8.43;;;7.22;;
50789;SDS011;37287;47.554;7.844;2023-04-16T06:10:46;9.82;;;7.28;;
50789;SDS011;37287;47.554;7.844;2023-04-16T06:13:14;7.70;;;6.85;;
50789;SDS011;37287;47.554;7.844;2023-04-16T06:15:40;7.88;;;6.82;;
50789;SDS011;37287;47.554;7.844;2023-04-16T06:18:07;8.23;;;7.20;;
50789;SDS011;37287;47.554;7.844;2023-04-16T06:20:33;7.25;;;6.22;;
50789;SDS011;37287;47.554;7.844;2023-04-16T06:23:00;6.20;;;5.60;;
50789;SDS011;37287;47.554;7.844;2023-04-16T06:25:33;7.57;;;5.65;;
50789;SDS011;37287;47.554;7.844;2023-04-16T06:28:00;6.15;;;4.63;;
50789;SDS011;37287;47.554;7.844;2023-04-16T06:30:26;6.28;;;5.65;;
50789;SDS011;37287;47.554;7.844;2023-04-16T06:32:55;6.07;;;5.15;;
50789;SDS011;37287;47.554;7.844;2023-04-16T06:35:22;5.03;;;4.47;;
50789;SDS011;37287;47.554;7.844;2023-04-16T06:37:48;5.82;;;4.10;;
50789;SDS011;37287;47.554;7.844;2023-04-16T06:40:15;7.03;;;5.10;;
50789;SDS011;37287;47.554;7.844;2023-04-16T06:42:42;6.18;;;4.15;;
50789;SDS011;37287;47.554;7.844;2023-04-16T06:45:10;5.72;;;4.57;;
50789;SDS011;37287;47.554;7.844;2023-04-16T06:47:39;4.57;;;4.15;;
50789;SDS011;37287;47.554;7.844;2023-04-16T06:50:06;4.53;;;4.13;;
50789;SDS011;37287;47.554;7.844;2023-04-16T06:52:33;4.13;;;3.72;;
50789;SDS011;37287;47.554;7.844;2023-04-16T06:55:01;4.38;;;3.72;;
50789;SDS011;37287;47.554;7.844;2023-04-16T06:57:27;4.38;;;3.60;;
50789;SDS011;37287;47.554;7.844;2023-04-16T06:59:54;3.58;;;3.13;;
50789;SDS011;37287;47.554;7.844;2023-04-16T07:02:27;3.30;;;3.00;;
50789;SDS011;37287;47.554;7.844;2023-04-16T07:04:54;5.53;;;3.72;;
50789;SDS011;37287;47.554;7.844;2023-04-16T07:07:20;5.05;;;2.95;;
50789;SDS011;37287;47.554;7.844;2023-04-16T07:09:48;3.45;;;2.80;;
50789;SDS011;37287;47.554;7.844;2023-04-16T07:12:15;3.28;;;2.70;;
50789;SDS011;37287;47.554;7.844;2023-04-16T07:14:42;4.25;;;2.95;;
50789;SDS011;37287;47.554;7.844;2023-04-16T07:17:14;3.97;;;2.85;;
50789;SDS011;37287;47.554;7.844;2023-04-16T07:19:41;3.88;;;2.88;;
50789;SDS011;37287;47.554;7.844;2023-04-16T07:22:07;2.78;;;2.53;;
50789;SDS011;37287;47.554;7.844;2023-04-16T07:24:38;3.03;;;2.22;;
50789;SDS011;37287;47.554;7.844;2023-04-16T07:27:05;3.58;;;2.83;;
50789;SDS011;37287;47.554;7.844;2023-04-16T07:29:31;2.88;;;2.58;;
50789;SDS011;37287;47.554;7.844;2023-04-16T07:31:58;3.47;;;2.67;;
50789;SDS011;37287;47.554;7.844;2023-04-16T07:34:24;6.63;;;2.60;;
50789;SDS011;37287;47.554;7.844;2023-04-16T07:36:53;4.05;;;2.58;;
50789;SDS011;37287;47.554;7.844;2023-04-16T07:39:21;3.58;;;3.10;;
50789;SDS011;37287;47.554;7.844;2023-04-16T07:41:48;4.60;;;2.92;;
50789;SDS011;37287;47.554;7.844;2023-04-16T07:44:14;4.85;;;2.92;;
50789;SDS011;37287;47.554;7.844;2023-04-16T07:46:41;4.03;;;3.50;;
50789;SDS011;37287;47.554;7.844;2023-04-16T07:49:12;3.45;;;3.15;;
50789;SDS011;37287;47.554;7.844;2023-04-16T07:51:39;4.03;;;3.63;;
50789;SDS011;37287;47.554;7.844;2023-04-16T07:54:07;4.43;;;3.22;;
50789;SDS011;37287;47.554;7.844;2023-04-16T07:56:34;7.25;;;4.03;;
50789;SDS011;37287;47.554;7.844;2023-04-16T07:59:01;5.30;;;3.10;;
50789;SDS011;37287;47.554;7.844;2023-04-16T08:01:46;3.90;;;2.75;;
50789;SDS011;37287;47.554;7.844;2023-04-16T08:04:13;3.88;;;3.47;;
50789;SDS011;37287;47.554;7.844;2023-04-16T08:06:46;5.70;;;3.22;;
50789;SDS011;37287;47.554;7.844;2023-04-16T08:09:13;3.72;;;3.25;;
50789;SDS011;37287;47.554;7.844;2023-04-16T08:11:39;3.85;;;3.30;;
50789;SDS011;37287;47.554;7.844;2023-04-16T08:14:06;3.40;;;3.08;;
50789;SDS011;37287;47.554;7.844;2023-04-16T08:16:32;3.40;;;3.10;;
50789;SDS011;37287;47.554;7.844;2023-04-16T08:19:04;10.63;;;3.60;;
50789;SDS011;37287;47.554;7.844;2023-04-16T08:21:31;3.95;;;3.08;;
50789;SDS011;37287;47.554;7.844;2023-04-16T08:23:58;3.97;;;3.50;;
50789;SDS011;37287;47.554;7.844;2023-04-16T08:26:24;4.28;;;3.78;;
50789;SDS011;37287;47.554;7.844;2023-04-16T08:28:51;5.22;;;3.60;;
50789;SDS011;37287;47.554;7.844;2023-04-16T08:31:18;5.18;;;3.95;;
50789;SDS011;37287;47.554;7.844;2023-04-16T08:33:44;4.53;;;3.53;;
50789;SDS011;37287;47.554;7.844;2023-04-16T08:36:11;5.75;;;3.65;;
50789;SDS011;37287;47.554;7.844;2023-04-16T08:38:38;7.05;;;3.50;;
50789;SDS011;37287;47.554;7.844;2023-04-16T08:41:05;3.75;;;3.38;;
50789;SDS011;37287;47.554;7.844;2023-04-16T08:43:37;6.20;;;4.05;;
50789;SDS011;37287;47.554;7.844;2023-04-16T08:46:07;5.70;;;4.05;;
50789;SDS011;37287;47.554;7.844;2023-04-16T08:48:45;4.43;;;3.42;;
50789;SDS011;37287;47.554;7.844;2023-04-16T08:51:14;4.03;;;3.63;;
50789;SDS011;37287;47.554;7.844;2023-04-16T08:53:53;3.92;;;3.00;;
50789;SDS011;37287;47.554;7.844;2023-04-16T08:58:56;4.00;;;3.50;;
50789;SDS011;37287;47.554;7.844;2023-04-16T09:01:26;3.53;;;2.80;;
50789;SDS011;37287;47.554;7.844;2023-04-16T09:03:53;2.72;;;2.42;;
50789;SDS011;37287;47.554;7.844;2023-04-16T09:06:21;3.55;;;3.10;;
50789;SDS011;37287;47.554;7.844;2023-04-16T09:08:47;4.05;;;2.80;;
50789;SDS011;37287;47.554;7.844;2023-04-16T09:11:18;3.88;;;3.25;;
50789;SDS011;37287;47.554;7.844;2023-04-16T09:13:45;5.93;;;3.28;;
50789;SDS011;37287;47.554;7.844;2023-04-16T09:16:13;4.25;;;3.83;;
50789;SDS011;37287;47.554;7.844;2023-04-16T09:18:48;3.25;;;2.95;;
50789;SDS011;37287;47.554;7.844;2023-04-16T09:21:15;4.28;;;3.67;;
50789;SDS011;37287;47.554;7.844;2023-04-16T09:23:41;4.68;;;3.40;;
50789;SDS011;37287;47.554;7.844;2023-04-16T09:26:08;6.47;;;3.20;;
50789;SDS011;37287;47.554;7.844;2023-04-16T09:28:42;7.30;;;4.32;;
50789;SDS011;37287;47.554;7.844;2023-04-16T09:31:13;5.35;;;3.40;;
50789;SDS011;37287;47.554;7.844;2023-04-16T09:33:42;4.03;;;3.63;;
50789;SDS011;37287;47.554;7.844;2023-04-16T09:36:09;4.22;;;3.50;;
50789;SDS011;37287;47.554;7.844;2023-04-16T09:38:48;3.60;;;3.30;;
50789;SDS011;37287;47.554;7.844;2023-04-16T09:41:16;4.70;;;3.70;;
50789;SDS011;37287;47.554;7.844;2023-04-16T09:43:48;5.80;;;3.45;;
50789;SDS011;37287;47.554;7.844;2023-04-16T09:46:40;8.73;;;3.60;;
50789;SDS011;37287;47.554;7.844;2023-04-16T09:49:14;8.93;;;3.50;;
50789;SDS011;37287;47.554;7.844;2023-04-16T09:51:45;3.92;;;3.40;;
50789;SDS011;37287;47.554;7.844;2023-04-16T09:54:14;6.05;;;3.47;;
50789;SDS011;37287;47.554;7.844;2023-04-16T09:56:42;4.50;;;3.38;;
50789;SDS011;37287;47.554;7.844;2023-04-16T09:59:19;5.88;;;3.67;;
50789;SDS011;37287;47.554;7.844;2023-04-16T10:01:47;4.45;;;3.80;;
50789;SDS011;37287;47.554;7.844;2023-04-16T10:04:46;4.85;;;3.60;;
50789;SDS011;37287;47.554;7.844;2023-04-16T10:07:17;5.72;;;3.40;;
50789;SDS011;37287;47.554;7.844;2023-04-16T10:09:45;4.40;;;3.70;;
50789;SDS011;37287;47.554;7.844;2023-04-16T10:12:13;7.93;;;4.35;;
50789;SDS011;37287;47.554;7.844;2023-04-16T10:14:43;11.88;;;3.80;;
50789;SDS011;37287;47.554;7.844;2023-04-16T10:17:09;5.43;;;3.60;;
50789;SDS011;37287;47.554;7.844;2023-04-16T10:19:36;7.57;;;3.40;;
50789;SDS011;37287;47.554;7.844;2023-04-16T10:22:05;7.55;;;3.97;;
50789;SDS011;37287;47.554;7.844;2023-04-16T10:24:32;6.15;;;3.33;;
50789;SDS011;37287;47.554;7.844;2023-04-16T10:26:59;3.95;;;3.60;;
50789;SDS011;37287;47.554;7.844;2023-04-16T10:29:32;5.53;;;3.50;;
50789;SDS011;37287;47.554;7.844;2023-04-16T10:32:00;4.78;;;3.63;;
50789;SDS011;37287;47.554;7.844;2023-04-16T10:34:30;4.13;;;3.72;;
50789;SDS011;37287;47.554;7.844;2023-04-16T10:36:57;4.93;;;3.72;;
50789;SDS011;37287;47.554;7.844;2023-04-16T10:39:26;3.33;;;3.00;;
50789;SDS011;37287;47.554;7.844;2023-04-16T10:42:10;4.95;;;3.35;;
50789;SDS011;37287;47.554;7.844;2023-04-16T10:44:42;4.38;;;3.80;;
50789;SDS011;37287;47.554;7.844;2023-04-16T10:47:11;4.90;;;3.83;;
50789;SDS011;37287;47.554;7.844;2023-04-16T10:49:39;5.10;;;4.55;;
50789;SDS011;37287;47.554;7.844;2023-04-16T10:52:08;4.75;;;3.53;;
50789;SDS011;37287;47.554;7.844;2023-04-16T10:54:37;4.35;;;3.80;;
50789;SDS011;37287;47.554;7.844;2023-04-16T10:57:05;4.65;;;4.00;;
50789;SDS011;37287;47.554;7.844;2023-04-16T10:59:35;4.82;;;4.20;;
50789;SDS011;37287;47.554;7.844;2023-04-16T11:02:07;4.20;;;3.80;;
50789;SDS011;37287;47.554;7.844;2023-04-16T11:04:37;4.38;;;3.95;;
50789;SDS011;37287;47.554;7.844;2023-04-16T11:12:15;4.80;;;3.90;;
50789;SDS011;37287;47.554;7.844;2023-04-16T11:14:59;4.85;;;4.20;;
50789;SDS011;37287;47.554;7.844;2023-04-16T11:17:36;6.38;;;4.43;;
50789;SDS011;37287;47.554;7.844;2023-04-16T11:22:49;3.85;;;3.40;;
50789;SDS011;37287;47.554;7.844;2023-04-16T11:25:23;5.07;;;3.78;;
50789;SDS011;37287;47.554;7.844;2023-04-16T11:27:56;4.57;;;4.07;;
50789;SDS011;37287;47.554;7.844;2023-04-16T11:30:29;4.78;;;3.70;;
50789;SDS011;37287;47.554;7.844;2023-04-16T11:33:04;3.92;;;3.53;;
50789;SDS011;37287;47.554;7.844;2023-04-16T11:35:34;4.13;;;3.60;;
50789;SDS011;37287;47.554;7.844;2023-04-16T11:38:01;3.83;;;3.33;;
50789;SDS011;37287;47.554;7.844;2023-04-16T11:40:28;3.78;;;3.33;;
50789;SDS011;37287;47.554;7.844;2023-04-16T11:43:29;4.70;;;4.20;;
50789;SDS011;37287;47.554;7.844;2023-04-16T11:46:01;4.10;;;3.70;;
50789;SDS011;37287;47.554;7.844;2023-04-16T11:48:45;3.55;;;3.13;;
50789;SDS011;37287;47.554;7.844;2023-04-16T11:51:17;4.00;;;3.65;;
50789;SDS011;37287;47.554;7.844;2023-04-16T11:53:47;5.43;;;4.10;;
50789;SDS011;37287;47.554;7.844;2023-04-16T11:59:09;4.00;;;2.95;;
50789;SDS011;37287;47.554;7.844;2023-04-16T12:01:48;6.25;;;4.13;;
50789;SDS011;37287;47.554;7.844;2023-04-16T12:04:20;3.53;;;3.22;;
50789;SDS011;37287;47.554;7.844;2023-04-16T12:07:10;3.65;;;2.95;;
50789;SDS011;37287;47.554;7.844;2023-04-16T12:09:41;3.50;;;3.17;;
50789;SDS011;37287;47.554;7.844;2023-04-16T12:12:24;3.47;;;3.00;;
50789;SDS011;37287;47.554;7.844;2023-04-16T12:14:57;3.33;;;3.03;;
50789;SDS011;37287;47.554;7.844;2023-04-16T12:17:25;3.50;;;3.17;;
50789;SDS011;37287;47.554;7.844;2023-04-16T12:19:55;3.60;;;3.20;;
50789;SDS011;37287;47.554;7.844;2023-04-16T12:22:31;3.20;;;2.90;;
50789;SDS011;37287;47.554;7.844;2023-04-16T12:25:03;2.90;;;2.60;;
50789;SDS011;37287;47.554;7.844;2023-04-16T12:30:19;2.92;;;2.70;;
50789;SDS011;37287;47.554;7.844;2023-04-16T12:32:50;3.25;;;3.03;;
50789;SDS011;37287;47.554;7.844;2023-04-16T12:35:31;4.10;;;3.03;;
50789;SDS011;37287;47.554;7.844;2023-04-16T12:37:59;3.17;;;2.88;;
50789;SDS011;37287;47.554;7.844;2023-04-16T12:40:26;5.18;;;3.20;;
50789;SDS011;37287;47.554;7.844;2023-04-16T12:42:53;3.47;;;3.17;;
50789;SDS011;37287;47.554;7.844;2023-04-16T12:45:27;3.47;;;3.05;;
50789;SDS011;37287;47.554;7.844;2023-04-16T12:47:53;5.18;;;3.20;;
50789;SDS011;37287;47.554;7.844;2023-04-16T12:50:21;2.63;;;2.42;;
50789;SDS011;37287;47.554;7.844;2023-04-16T12:53:11;9.32;;;6.93;;
50789;SDS011;37287;47.554;7.844;2023-04-16T12:55:38;4.15;;;3.35;;
50789;SDS011;37287;47.554;7.844;2023-04-16T12:58:07;4.63;;;3.22;;
50789;SDS011;37287;47.554;7.844;2023-04-16T13:00:38;3.80;;;2.35;;
50789;SDS011;37287;47.554;7.844;2023-04-16T13:03:05;2.85;;;2.55;;
50789;SDS011;37287;47.554;7.844;2023-04-16T13:05:32;2.80;;;2.50;;
50789;SDS011;37287;47.554;7.844;2023-04-16T13:07:59;3.10;;;2.83;;
50789;SDS011;37287;47.554;7.844;2023-04-16T13:10:30;3.15;;;2.60;;
50789;SDS011;37287;47.554;7.844;2023-04-16T13:12:57;3.75;;;3.08;;
50789;SDS011;37287;47.554;7.844;2023-04-16T13:15:25;2.47;;;2.28;;
50789;SDS011;37287;47.554;7.844;2023-04-16T13:17:53;4.07;;;3.22;;
50789;SDS011;37287;47.554;7.844;2023-04-16T13:20:20;3.17;;;2.88;;
50789;SDS011;37287;47.554;7.844;2023-04-16T13:22:49;4.05;;;3.20;;
50789;SDS011;37287;47.554;7.844;2023-04-16T13:25:16;4.00;;;3.28;;
50789;SDS011;37287;47.554;7.844;2023-04-16T13:27:44;5.22;;;3.60;;
50789;SDS011;37287;47.554;7.844;2023-04-16T13:30:10;3.53;;;3.10;;
50789;SDS011;37287;47.554;7.844;2023-04-16T13:32:39;3.85;;;3.00;;
50789;SDS011;37287;47.554;7.844;2023-04-16T13:35:06;3.60;;;3.30;;
50789;SDS011;37287;47.554;7.844;2023-04-16T13:37:33;4.22;;;3.35;;
50789;SDS011;37287;47.554;7.844;2023-04-16T13:40:06;3.75;;;3.35;;
50789;SDS011;37287;47.554;7.844;2023-04-16T13:42:33;3.38;;;3.00;;
50789;SDS011;37287;47.554;7.844;2023-04-16T13:45:00;4.97;;;3.60;;
50789;SDS011;37287;47.554;7.844;2023-04-16T13:47:27;4.25;;;3.58;;
50789;SDS011;37287;47.554;7.844;2023-04-16T13:49:53;4.40;;;4.00;;
50789;SDS011;37287;47.554;7.844;2023-04-16T13:52:23;4.88;;;3.80;;
50789;SDS011;37287;47.554;7.844;2023-04-16T13:54:50;6.13;;;4.78;;
50789;SDS011;37287;47.554;7.844;2023-04-16T13:57:17;5.82;;;4.13;;
50789;SDS011;37287;47.554;7.844;2023-04-16T13:59:43;5.70;;;4.25;;
50789;SDS011;37287;47.554;7.844;2023-04-16T14:02:10;6.18;;;4.85;;
50789;SDS011;37287;47.554;7.844;2023-04-16T14:04:38;6.35;;;4.43;;
50789;SDS011;37287;47.554;7.844;2023-04-16T14:07:04;5.50;;;4.47;;
50789;SDS011;37287;47.554;7.844;2023-04-16T14:09:32;6.72;;;4.85;;
50789;SDS011;37287;47.554;7.844;2023-04-16T14:11:59;6.13;;;4.40;;
50789;SDS011;37287;47.554;7.844;2023-04-16T14:14:25;4.65;;;4.18;;
50789;SDS011;37287;47.554;7.844;2023-04-16T14:16:57;4.50;;;3.83;;
50789;SDS011;37287;47.554;7.844;2023-04-16T14:19:24;4.15;;;3.75;;
50789;SDS011;37287;47.554;7.844;2023-04-16T14:21:51;4.40;;;3.85;;
50789;SDS011;37287;47.554;7.844;2023-04-16T14:24:17;4.68;;;3.72;;
50789;SDS011;37287;47.554;7.844;2023-04-16T14:26:44;4.75;;;3.50;;
50789;SDS011;37287;47.554;7.844;2023-04-16T14:29:15;4.07;;;3.58;;
50789;SDS011;37287;47.554;7.844;2023-04-16T14:31:43;4.72;;;3.88;;
50789;SDS011;37287;47.554;7.844;2023-04-16T14:34:10;7.28;;;5.32;;
50789;SDS011;37287;47.554;7.844;2023-04-16T14:36:37;6.15;;;4.60;;
50789;SDS011;37287;47.554;7.844;2023-04-16T14:39:03;5.22;;;4.60;;
50789;SDS011;37287;47.554;7.844;2023-04-16T14:41:30;6.20;;;4.93;;
50789;SDS011;37287;47.554;7.844;2023-04-16T14:43:57;6.28;;;4.85;;
50789;SDS011;37287;47.554;7.844;2023-04-16T14:46:26;5.13;;;4.50;;
50789;SDS011;37287;47.554;7.844;2023-04-16T14:48:55;5.00;;;4.50;;
50789;SDS011;37287;47.554;7.844;2023-04-16T14:51:22;5.35;;;4.78;;
50789;SDS011;37287;47.554;7.844;2023-04-16T14:53:48;6.40;;;4.30;;
50789;SDS011;37287;47.554;7.844;2023-04-16T14:56:15;4.97;;;4.47;;
50789;SDS011;37287;47.554;7.844;2023-04-16T14:58:42;4.75;;;4.25;;
50789;SDS011;37287;47.554;7.844;2023-04-16T15:01:10;6.43;;;4.55;;
50789;SDS011;37287;47.554;7.844;2023-04-16T15:03:39;6.28;;;5.03;;
50789;SDS011;37287;47.554;7.844;2023-04-16T15:06:07;5.55;;;4.18;;
50789;SDS011;37287;47.554;7.844;2023-04-16T15:08:44;5.32;;;4.38;;
50789;SDS011;37287;47.554;7.844;2023-04-16T15:11:11;5.43;;;4.32;;
50789;SDS011;37287;47.554;7.844;2023-04-16T15:13:38;5.30;;;4.55;;